createdAt,value
2022-11-10T00:04:44.038Z,11.8
2022-11-10T00:09:48.575Z,11.7
2022-11-10T00:14:53.144Z,11.6
2022-11-10T00:19:57.671Z,11.6
2022-11-10T00:25:01.159Z,11.6
2022-11-10T00:30:05.720Z,11.6
2022-11-10T00:35:10.252Z,11.6
2022-11-10T00:40:14.938Z,11.5
2022-11-10T00:45:18.462Z,11.4
2022-11-10T00:50:23.023Z,11.4
2022-11-10T00:55:27.568Z,11.5
2022-11-10T01:00:32.056Z,11.4
2022-11-10T01:05:35.642Z,11.3
2022-11-10T01:10:40.157Z,11.3
2022-11-10T01:15:44.662Z,11.3
2022-11-10T01:20:49.358Z,11.2
2022-11-10T01:25:53.899Z,11.1
2022-11-10T01:30:58.409Z,11.2
2022-11-10T01:36:01.994Z,11.2
2022-11-10T01:41:06.517Z,11.2
2022-11-10T01:46:11.121Z,11.3
2022-11-10T01:51:14.614Z,11.2
2022-11-10T01:56:19.119Z,11.2
2022-11-10T02:01:23.689Z,11.1
2022-11-10T02:06:28.289Z,11.1
2022-11-10T02:11:31.703Z,11.2
2022-11-10T02:16:36.250Z,11.1
2022-11-10T02:21:40.824Z,11.1
2022-11-10T02:26:44.351Z,11
2022-11-10T02:31:48.888Z,11
2022-11-10T02:36:53.457Z,10.8
2022-11-10T02:41:56.962Z,10.8
2022-11-10T02:47:01.534Z,10.8
2022-11-10T02:52:06.047Z,10.8
2022-11-10T02:57:09.587Z,10.8
2022-11-10T03:02:14.091Z,10.7
2022-11-10T03:07:18.649Z,10.7
2022-11-10T03:12:23.165Z,10.6
2022-11-10T03:17:26.727Z,10.5
2022-11-10T03:22:31.276Z,10.5
2022-11-10T03:27:35.806Z,10.3
2022-11-10T03:32:39.371Z,10.3
2022-11-10T03:37:43.919Z,10.3
2022-11-10T03:42:48.442Z,10.3
2022-11-10T03:47:51.990Z,10.3
2022-11-10T03:52:56.504Z,10.4
2022-11-10T03:58:01.010Z,10.4
2022-11-10T04:03:04.574Z,10.4
2022-11-10T04:08:09.174Z,10.4
2022-11-10T04:13:13.640Z,10.3
2022-11-10T04:18:18.154Z,10.3
2022-11-10T04:23:22.157Z,10.3
2022-11-10T04:28:26.273Z,10.3
2022-11-10T04:33:30.805Z,10.3
2022-11-10T04:38:34.417Z,10.3
2022-11-10T04:43:38.862Z,10.4
2022-11-10T04:48:43.419Z,10.3
2022-11-10T04:53:47.018Z,10.3
2022-11-10T04:58:51.492Z,10.3
2022-11-10T05:03:55.065Z,10.3
2022-11-10T05:08:59.646Z,10.2
2022-11-10T05:14:04.105Z,10.2
2022-11-10T05:19:07.684Z,10.1
2022-11-10T05:24:12.215Z,10.1
2022-11-10T05:29:16.759Z,10.1
2022-11-10T05:34:20.281Z,10.1
2022-11-10T05:39:24.852Z,10
2022-11-10T05:44:29.358Z,10.1
2022-11-10T05:49:32.877Z,10
2022-11-10T05:54:37.498Z,10.1
2022-11-10T05:59:41.975Z,10
2022-11-10T06:04:46.505Z,10
2022-11-10T06:09:50.093Z,9.9
2022-11-10T06:14:54.600Z,10
2022-11-10T06:19:59.152Z,10
2022-11-10T06:25:02.687Z,10
2022-11-10T06:30:07.242Z,9.9
2022-11-10T06:35:11.738Z,9.9
2022-11-10T06:40:15.337Z,9.8
2022-11-10T06:45:19.820Z,9.9
2022-11-10T06:50:24.373Z,9.9
2022-11-10T06:55:27.934Z,9.9
2022-11-10T07:00:32.429Z,10
2022-11-10T07:05:36.977Z,10.1
2022-11-10T07:10:41.514Z,10.3
2022-11-10T07:15:45.078Z,10.4
2022-11-10T07:20:49.601Z,10.4
2022-11-10T07:25:54.159Z,10.6
2022-11-10T07:30:57.663Z,10.7
2022-11-10T07:36:02.213Z,10.9
2022-11-10T07:41:06.783Z,11.1
2022-11-10T07:46:10.293Z,10.9
2022-11-10T07:51:14.810Z,10.8
2022-11-10T07:56:19.371Z,10.9
2022-11-10T08:01:22.946Z,10.9
2022-11-10T08:06:29.224Z,10.9
2022-11-10T08:11:31.970Z,11.1
2022-11-10T08:16:36.515Z,11.2
2022-11-10T08:21:41.153Z,11.3
2022-11-10T08:26:45.741Z,11
2022-11-10T08:31:50.219Z,11.4
2022-11-10T08:36:53.780Z,11.5
2022-11-10T08:41:58.385Z,11.4
2022-11-10T08:47:02.824Z,11.6
2022-11-10T08:52:06.429Z,11.4
2022-11-10T08:57:10.940Z,11.7
2022-11-10T09:02:15.464Z,11.5
2022-11-10T09:07:19.086Z,11.8
2022-11-10T09:12:23.563Z,12
2022-11-10T09:17:27.100Z,12.6
2022-11-10T09:22:31.697Z,13.2
2022-11-10T09:27:36.233Z,13
2022-11-10T09:32:39.766Z,13.5
2022-11-10T09:37:44.329Z,13.1
2022-11-10T09:42:48.840Z,13.7
2022-11-10T09:47:59.610Z,13.7
2022-11-10T09:52:56.937Z,13.1
2022-11-10T09:58:01.474Z,13.2
2022-11-10T10:03:05.992Z,13.8
2022-11-10T10:08:09.531Z,13.6
2022-11-10T10:13:14.085Z,13.7
2022-11-10T10:18:18.630Z,13.8
2022-11-10T10:23:30.637Z,14
2022-11-10T10:28:26.748Z,14.1
2022-11-10T10:33:31.241Z,14.4
2022-11-10T10:38:35.889Z,14.3
2022-11-10T10:43:40.439Z,15.2
2022-11-10T10:48:50.439Z,15.3
2022-11-10T10:53:48.579Z,14.8
2022-11-10T10:58:53.121Z,14.8
2022-11-10T11:03:57.620Z,14.6
2022-11-10T11:09:02.143Z,15.6
2022-11-10T11:14:05.741Z,15.1
2022-11-10T11:19:10.489Z,15.3
2022-11-10T11:24:14.797Z,15.4
2022-11-10T11:29:18.386Z,14.9
2022-11-10T11:34:22.862Z,15
2022-11-10T11:39:27.432Z,15.2
2022-11-10T11:44:30.992Z,14.6
2022-11-10T11:49:35.528Z,15.2
2022-11-10T11:54:40.042Z,15.5
2022-11-10T11:59:43.617Z,14.7
2022-11-10T12:04:48.133Z,15.2
2022-11-10T12:09:52.752Z,15.7
2022-11-10T12:14:57.239Z,15.7
2022-11-10T12:20:00.738Z,15
2022-11-10T12:25:05.362Z,15.1
2022-11-10T12:30:09.841Z,15.4
2022-11-10T12:35:13.384Z,15.3
2022-11-10T12:40:17.946Z,16.6
2022-11-10T12:45:22.479Z,15.8
2022-11-10T12:50:26.012Z,16
2022-11-10T12:55:30.559Z,15.7
2022-11-10T13:00:35.072Z,16.5
2022-11-10T13:05:38.627Z,16.1
2022-11-10T13:10:43.137Z,15.1
2022-11-10T13:15:47.737Z,15.2
2022-11-10T13:20:52.264Z,15
2022-11-10T13:25:55.798Z,15.7
2022-11-10T13:30:59.376Z,15.6
2022-11-10T13:36:03.886Z,15.6
2022-11-10T13:41:08.417Z,15.3
2022-11-10T13:46:11.994Z,15.5
2022-11-10T13:51:16.475Z,15.6
2022-11-10T13:56:21.013Z,14.7
2022-11-10T14:01:25.606Z,15.3
2022-11-10T14:06:29.125Z,14.9
2022-11-10T14:11:33.639Z,14.8
2022-11-10T14:16:38.211Z,15.2
2022-11-10T14:21:41.740Z,14.5
2022-11-10T14:26:46.261Z,15
2022-11-10T14:31:50.895Z,14.8
2022-11-10T14:36:54.356Z,14.9
2022-11-10T14:41:58.884Z,14.3
2022-11-10T14:47:03.562Z,15
2022-11-10T14:52:06.964Z,14.8
2022-11-10T14:57:11.478Z,14.6
2022-11-10T15:02:16.145Z,13.8
2022-11-10T15:07:20.635Z,13.8
2022-11-10T15:12:24.279Z,13.5
2022-11-10T15:17:28.802Z,13.2
2022-11-10T15:22:33.170Z,13.1
2022-11-10T15:27:36.733Z,13
2022-11-10T15:32:41.386Z,12.8
2022-11-10T15:37:45.834Z,12.7
2022-11-10T15:42:49.379Z,12.6
2022-11-10T15:47:53.990Z,12.4
2022-11-10T15:52:58.426Z,12.2
2022-11-10T15:58:02.066Z,12.2
2022-11-10T16:03:06.651Z,12.1
2022-11-10T16:08:11.033Z,12.1
2022-11-10T16:13:15.594Z,12
2022-11-10T16:18:19.384Z,11.9
2022-11-10T16:23:23.677Z,11.7
2022-11-10T16:28:28.203Z,11.7
2022-11-10T16:33:31.847Z,11.7
2022-11-10T16:38:36.272Z,11.6
2022-11-10T16:43:40.801Z,11.4
2022-11-10T16:48:44.460Z,11.4
2022-11-10T16:53:48.908Z,11.3
2022-11-10T16:58:53.453Z,11.2
2022-11-10T17:03:57.116Z,11.2
2022-11-10T17:09:01.558Z,11.2
2022-11-10T17:14:06.058Z,11.1
2022-11-10T17:19:11.120Z,11.1
2022-11-10T17:24:14.272Z,11
2022-11-10T17:29:18.695Z,11.1
2022-11-10T17:34:23.355Z,10.9
2022-11-10T17:39:26.765Z,11
2022-11-10T17:44:30.358Z,10.9
2022-11-10T17:49:34.998Z,10.8
2022-11-10T17:54:39.398Z,10.7
2022-11-10T17:59:43.935Z,10.7
2022-11-10T18:04:47.614Z,10.5
2022-11-10T18:09:52.006Z,10.3
2022-11-10T18:14:56.593Z,10.3
2022-11-10T18:20:00.276Z,10.1
2022-11-10T18:25:04.725Z,10
2022-11-10T18:30:09.179Z,10
2022-11-10T18:35:12.861Z,9.9
2022-11-10T18:40:17.268Z,9.7
2022-11-10T18:45:21.791Z,9.7
2022-11-10T18:50:25.563Z,9.6
2022-11-10T18:55:29.882Z,9.7
2022-11-10T19:00:34.414Z,9.6
2022-11-10T19:05:39.068Z,9.6
2022-11-10T19:10:42.505Z,9.6
2022-11-10T19:15:47.047Z,9.5
2022-11-10T19:20:51.658Z,9.5
2022-11-10T19:25:55.114Z,9.5
2022-11-10T19:30:59.657Z,9.5
2022-11-10T19:36:04.286Z,9.5
2022-11-10T19:41:07.726Z,9.5
2022-11-10T19:46:12.264Z,9.5
2022-11-10T19:51:16.919Z,9.5
2022-11-10T19:56:20.343Z,9.5
2022-11-10T20:01:24.928Z,9.4
2022-11-10T20:06:29.535Z,9.4
2022-11-10T20:11:33.947Z,9.4
2022-11-10T20:16:37.481Z,9.3
2022-11-10T20:21:42.176Z,9.3
2022-11-10T20:26:46.557Z,9.4
2022-11-10T20:31:50.095Z,9.3
2022-11-10T20:36:54.764Z,9.3
2022-11-10T20:41:59.158Z,9.3
2022-11-10T20:47:02.777Z,9.3
2022-11-10T20:52:07.388Z,9.3
2022-11-10T20:57:11.811Z,9.2
2022-11-10T21:02:15.333Z,9.2
2022-11-10T21:07:20.035Z,9.3
2022-11-10T21:12:24.445Z,9.2
2022-11-10T21:17:28.961Z,9.3
2022-11-10T21:22:32.651Z,9.3
2022-11-10T21:27:37.042Z,9.2
2022-11-10T21:32:41.577Z,9.2
2022-11-10T21:37:45.282Z,9.2
2022-11-10T21:42:49.695Z,9.3
2022-11-10T21:47:54.228Z,9.3
2022-11-10T21:52:57.893Z,9.3
2022-11-10T21:58:02.304Z,9.2
2022-11-10T22:03:05.946Z,9.2
2022-11-10T22:08:10.484Z,9.3
2022-11-10T22:13:14.937Z,9.2
2022-11-10T22:18:18.460Z,9.2
2022-11-10T22:23:23.471Z,9.1
2022-11-10T22:28:27.548Z,9.1
2022-11-10T22:33:31.078Z,9
2022-11-10T22:38:35.815Z,9.1
2022-11-10T22:43:40.436Z,9
2022-11-10T22:48:43.703Z,8.9
2022-11-10T22:53:48.405Z,8.7
2022-11-10T22:58:58.495Z,8.8
2022-11-10T23:03:57.301Z,8.8
2022-11-10T23:09:01.002Z,8.8
2022-11-10T23:14:05.384Z,8.7
2022-11-10T23:19:09.929Z,8.7
2022-11-10T23:24:13.621Z,8.6
2022-11-10T23:29:18.024Z,8.5
2022-11-10T23:34:22.538Z,8.4
2022-11-10T23:39:26.231Z,8.4
2022-11-10T23:44:30.620Z,8.4
2022-11-10T23:49:35.183Z,8.4
2022-11-10T23:54:38.853Z,8.4
2022-11-10T23:59:43.267Z,8.3
